Weather observations for the past three days for
Laughlin Air Force Base Auxiliary Airfield
Metric (Imperial)
Date Time (cdt) Wind (kph) Vis. (km) Weather Sky Cond. Temperature (ºC) Relative Humidity Wind Chill (°C) Heat Index (°C) Pressure Precipitation (cm)
Air Dwpt 6 hour altimeter (cm) sea level (mb) 1 hr 3 hr 6 hr
Max. Min.
05 21:55 E 7 16.09 Fair CLR 26.8 20.1 67% 28 75.34 1003.2
05 20:55 E 11 16.09 Fair CLR 28.3 20 61% 30 75.29 1002.5
05 19:55 E 13 16.09 Fair CLR 30.9 19.2 50% 32 75.23 1001.7
05 18:55 E 11 16.09 Fair CLR 31.8 18.4 32.5 28.4 45% 33 75.23 1001.7
05 17:55 SE 9 16.09 Fair CLR 32.5 19 45% 34 75.26 1002.0
05 16:55 NE 11 16.09 Fair CLR 31.6 19.2 48% 33 75.29 1002.4
05 15:55 NE 9 16.09 A Few Clouds FEW190 31.2 19.2 49% 33 75.34 1003.1
05 14:55 N 6 16.09 A Few Clouds FEW200 30.8 18.5 48% 32 75.39 1003.8
05 13:55 NE 7 16.09 Partly Cloudy FEW180 SCT200 29.8 19.5 54% 31 75.44 1004.4
05 12:55 S 6 16.09 A Few Clouds FEW170 28.3 19.2 28.4 21.8 58% 30 75.49 1005.2
05 11:55 Calm 16.09 A Few Clouds FEW023 26.4 19.5 66% 28 75.54 1005.9
05 10:55 SE 9 16.09 Mostly Cloudy BKN018 25.6 19.5 69% 27 75.57 1006.3
05 09:55 SE 11 16.09 Overcast OVC012 23.8 19.5 77% 75.54 1005.9
05 08:55 E 17 16.09 Overcast OVC010 22.6 19.5 83% 75.51 1005.6
05 07:55 SE 17 16.09 Overcast OVC010 21.9 19.4 86% 75.49 1005.2
05 06:55 SE 17 16.09 Overcast OVC010 21.9 19.2 23.3 21.4 85% 75.44 1004.5
05 05:55 SE 15 16.09 Overcast OVC013 21.7 18.9 84% 75.41 1004.1
05 04:55 SE 15 16.09 Fair CLR 21.4 18.6 84% 75.41 1004.1
05 03:55 SE 13 16.09 Fair CLR 21.9 18.5 81% 75.44 1004.5
05 02:55 E 13 16.09 Fair CLR 22.1 18.1 78% 75.46 1004.8
05 01:55 SE 15 16.09 Fair CLR 23 17.7 72% 75.51 1005.5
05 00:55 SE 11 16.09 Fair CLR 23.2 17.6 29.8 23.1 71% 75.57 1006.3
04 23:55 SE 15 16.09 Fair CLR 23.6 17.3 68% 75.57 1006.3
04 22:55 SE 15 16.09 Fair CLR 24.6 17.3 64% 26 75.59 0.0
04 21:55 SE 17 16.09 Fair CLR 25.5 17.1 60% 26 75.54 1006.0
04 20:55 SE 20 16.09 Fair CLR 26.9 16.8 54% 28 75.51 1005.7
04 19:55 SE 26 16.09 Fair CLR 28.3 16.2 48% 29 75.51 1005.7
04 18:55 SE 22 16.09 Fair CLR 29.7 16.1 31 26.7 44% 30 75.51 1005.7
04 17:55 S 24 16.09 Fair CLR 30.4 16.4 43% 31 75.49 1005.4
04 16:55 SE 24 16.09 Fair CLR 30.4 16 42% 30 75.54 1006.0
04 15:55 S 28 16.09 Fair CLR 30.4 15.3 40% 30 75.62 1007.0
04 14:55 SE 20 G 33 16.09 Fair CLR 29.6 15.3 42% 29 75.72 1008.4
04 13:55 S 20 G 31 16.09 A Few Clouds FEW190 28.5 15.7 46% 29 75.77 1009.1
04 12:55 SE 26 16.09 Partly Cloudy FEW140 SCT170 26.6 15.6 26.6 16.3 51% 27 75.84 1010.1
04 11:55 S 19 16.09 Fair CLR 25.5 15.8 55% 26 75.87 1010.5
04 10:55 SE 22 16.09 Fair CLR 0 0 0% 75.95 0.0
04 09:55 SE 22 16.09 Partly Cloudy SCT017 20.7 15.5 72% 75.95 1011.6
04 08:55 SE 20 16.09 Overcast OVC016 19.2 15.1 77% 75.95 1011.6
04 07:55 E 19 16.09 Overcast OVC017 17.5 14.2 81% 75.92 1011.2
04 06:55 E 11 16.09 Fair CLR 16.4 13.7 19.2 16.4 84% 75.92 1011.3
04 05:55 E 15 16.09 Mostly Cloudy BKN150 16.9 13.6 81% 75.9 1010.9
04 04:55 E 17 16.09 A Few Clouds FEW160 17.3 13.6 79% 75.92 1011.2
04 03:55 E 15 16.09 Partly Cloudy SCT170 17.5 13 75% 75.95 1011.5
04 02:55 SE 11 16.09 Partly Cloudy SCT180 18.4 12.2 67% 76 1012.2
04 01:55 E 11 16.09 Partly Cloudy SCT190 18.7 11.5 63% 76.02 1012.6
04 00:55 SE 13 16.09 Fair CLR 18.7 11.7 26.7 18.7 64% 76.02 1012.6
03 23:55 SE 9 16.09 Fair CLR 19.7 11.7 60% 76.07 1013.3
03 22:55 E 9 16.09 Fair CLR 21.2 11.2 53% 76.1 1013.6
03 21:55 SE 11 16.09 Mostly Cloudy BKN210 22.3 10.7 48% 76.12 1014.0
03 20:55 SE 11 16.09 Fair CLR 22.9 11.3 48% 76.07 1013.4
03 19:55 S 15 16.09 Fair CLR 25.4 9.2 36% 26 76.07 1013.3
03 18:55 S 24 16.09 Fair CLR 26.7 8.6 27.6 24.2 32% 26 76.07 1013.3
03 17:55 S 22 16.09 Fair CLR 27.4 9.2 32% 27 76.1 1013.7
03 16:55 S 19 G 31 16.09 Fair CLR 27.2 8.1 30% 27 76.12 1014.1
03 15:55 S 17 16.09 Fair CLR 27 7.4 29% 26 76.25 1015.7
03 14:55 S 9 G 35 16.09 A Few Clouds FEW180 26.4 6.9 29% 26 76.35 1017.1
03 13:55 S 24 G 33 16.09 A Few Clouds FEW140 FEW170 FEW190 25.5 8.5 34% 26 76.4 1017.8
03 12:55 SE 17 16.09 A Few Clouds FEW200 24.1 8.9 24.3 14.5 38% 25 76.5 1019.2
03 11:55 S 20 G 31 16.09 Fair CLR 23.5 8 37% 76.61 1020.5
03 10:55 SE 17 16.09 Fair CLR 22.2 9.7 45% 76.61 1020.6
03 09:55 SE 7 16.09 Fair CLR 19.9 11.1 57% 76.66 1021.2
03 08:55 SE 13 16.09 Mostly Cloudy BKN160 17.8 10.4 62% 76.63 1020.9
03 07:55 E 7 16.09 Overcast OVC160 16.1 10.6 70% 76.61 1020.6
03 06:55 E 7 16.09 Overcast OVC160 14.6 11 16.7 13.6 79% 76.56 1019.9
03 05:55 Calm 16.09 Overcast BKN140 OVC160 14.4 11.2 81% 76.5 1019.3
03 04:55 E 6 16.09 Overcast SCT140 OVC160 13.9 11.2 84% 76.5 1019.3
03 03:55 NE 6 16.09 Fair CLR 14 11 82% 76.56 1019.9
03 02:55 NE 7 16.09 Fair CLR 14.7 11.1 79% 76.5 1019.3
03 01:55 SE 11 16.09 Fair CLR 15.5 11.3 76% 76.5 1019.3
03 00:55 E 7 16.09 Partly Cloudy SCT130 16.8 11.5 24.7 16.7 71% 76.56 1019.9
02 23:55 SE 9 16.09 Fair CLR 17.9 11 64% 76.53 1019.6
02 22:55 S 7 16.09 Fair CLR 18.7 11 61% 76.5 1019.3
Date Time (cdt) Wind (kph) Vis. (km) Weather Sky Cond. Air Dwpt Max. Min. Relative Humidity Wind Chill (°C) Heat Index (°C) altimeter (cm) sea level (mb) 1 hr 3 hr 6 hr
6 hour
Temperature (ºC) Pressure Precipitation (cm)